createdAt,value
2019-04-07T00:00:12.804Z,988.47
2019-04-07T00:01:12.952Z,988.47
2019-04-07T00:02:13.062Z,988.48
2019-04-07T00:03:12.918Z,988.46
2019-04-07T00:04:12.886Z,988.49
2019-04-07T00:05:14.598Z,988.45
2019-04-07T00:06:13.472Z,988.47
2019-04-07T00:07:13.733Z,988.5
2019-04-07T00:08:13.410Z,988.5
2019-04-07T00:09:12.988Z,988.48
2019-04-07T00:10:13.013Z,988.51
2019-04-07T00:11:13.030Z,988.51
2019-04-07T00:12:13.666Z,988.45
2019-04-07T00:13:13.609Z,988.47
2019-04-07T00:14:13.093Z,988.48
2019-04-07T00:15:13.112Z,988.52
2019-04-07T00:16:13.476Z,988.51
2019-04-07T00:17:13.691Z,988.47
2019-04-07T00:18:13.334Z,988.47
2019-04-07T00:19:13.678Z,988.5
2019-04-07T00:20:13.804Z,988.47
2019-04-07T00:21:13.675Z,988.45
2019-04-07T00:22:13.387Z,988.47
2019-04-07T00:23:13.279Z,988.52
2019-04-07T00:24:13.614Z,988.51
2019-04-07T00:25:13.318Z,988.51
2019-04-07T00:26:13.337Z,988.49
2019-04-07T00:27:13.357Z,988.5
2019-04-07T00:28:13.378Z,988.47
2019-04-07T00:29:13.399Z,988.47
2019-04-07T00:30:13.712Z,988.47
2019-04-07T00:31:13.465Z,988.49
2019-04-07T00:32:14.069Z,988.5
2019-04-07T00:33:13.481Z,988.51
2019-04-07T00:34:13.557Z,988.53
2019-04-07T00:35:23.067Z,988.54
2019-04-07T00:36:13.546Z,988.48
2019-04-07T00:37:14.055Z,988.53
2019-04-07T00:38:13.904Z,988.47
2019-04-07T00:39:13.606Z,988.5
2019-04-07T00:40:14.224Z,988.48
2019-04-07T00:41:13.644Z,988.47
2019-04-07T00:42:13.665Z,988.46
2019-04-07T00:43:13.748Z,988.47
2019-04-07T00:44:13.704Z,988.51
2019-04-07T00:45:14.105Z,988.47
2019-04-07T00:46:13.746Z,988.52
2019-04-07T00:47:14.026Z,988.51
2019-04-07T00:48:13.787Z,988.5
2019-04-07T00:49:13.807Z,988.5
2019-04-07T00:50:14.151Z,988.45
2019-04-07T00:51:14.010Z,988.43
2019-04-07T00:52:14.001Z,988.47
2019-04-07T00:53:14.393Z,988.42
2019-04-07T00:54:13.910Z,988.42
2019-04-07T00:55:14.204Z,988.47
2019-04-07T00:56:13.949Z,988.46
2019-04-07T00:57:14.207Z,988.45
2019-04-07T00:58:13.991Z,988.46
2019-04-07T00:59:14.374Z,988.45
2019-04-07T01:00:16.355Z,988.43
2019-04-07T01:01:14.192Z,988.39
2019-04-07T01:02:14.071Z,988.44
2019-04-07T01:03:14.800Z,988.42
2019-04-07T01:04:14.113Z,988.39
2019-04-07T01:05:14.692Z,988.4
2019-04-07T01:06:14.153Z,988.45
2019-04-07T01:07:14.479Z,988.4
2019-04-07T01:08:14.195Z,988.43
2019-04-07T01:09:14.513Z,988.41
2019-04-07T01:10:14.238Z,988.4
2019-04-07T01:11:14.257Z,988.39
2019-04-07T01:12:14.811Z,988.44
2019-04-07T01:13:14.426Z,988.47
2019-04-07T01:14:14.317Z,988.46
2019-04-07T01:15:14.336Z,988.48
2019-04-07T01:16:14.637Z,988.49
2019-04-07T01:17:14.927Z,988.45
2019-04-07T01:18:14.398Z,988.51
2019-04-07T01:19:14.636Z,988.51
2019-04-07T01:20:15.109Z,988.49
2019-04-07T01:21:14.939Z,988.5
2019-04-07T01:22:14.498Z,988.51
2019-04-07T01:23:14.500Z,988.53
2019-04-07T01:24:14.545Z,988.52
2019-04-07T01:25:14.866Z,988.49
2019-04-07T01:26:14.560Z,988.52
2019-04-07T01:27:14.679Z,988.5
2019-04-07T01:28:14.819Z,988.54
2019-04-07T01:29:14.778Z,988.53
2019-04-07T01:30:15.046Z,988.55
2019-04-07T01:31:14.664Z,988.54
2019-04-07T01:32:14.802Z,988.52
2019-04-07T01:33:15.284Z,988.52
2019-04-07T01:34:15.029Z,988.55
2019-04-07T01:35:15.172Z,988.55
2019-04-07T01:36:14.765Z,988.58
2019-04-07T01:37:15.299Z,988.52
2019-04-07T01:38:15.298Z,988.55
2019-04-07T01:39:15.237Z,988.53
2019-04-07T01:40:14.846Z,988.54
2019-04-07T01:41:15.263Z,988.5
2019-04-07T01:42:14.886Z,988.53
2019-04-07T01:43:15.329Z,988.51
2019-04-07T01:44:15.490Z,988.48
2019-04-07T01:45:15.475Z,988.5
2019-04-07T01:46:15.238Z,988.47
2019-04-07T01:47:15.072Z,988.48
2019-04-07T01:48:15.009Z,988.44
2019-04-07T01:49:15.072Z,988.48
2019-04-07T01:50:15.178Z,988.44
2019-04-07T01:51:15.670Z,988.44
2019-04-07T01:52:15.090Z,988.4
2019-04-07T01:53:15.161Z,988.45
2019-04-07T01:54:15.341Z,988.42
2019-04-07T01:55:15.526Z,988.37
2019-04-07T01:56:15.682Z,988.37
2019-04-07T01:57:15.599Z,988.34
2019-04-07T01:58:15.225Z,988.33
2019-04-07T01:59:15.467Z,988.35
2019-04-07T02:00:15.254Z,988.33
2019-04-07T02:01:15.784Z,988.31
2019-04-07T02:02:15.881Z,988.34
2019-04-07T02:03:15.345Z,988.32
2019-04-07T02:04:15.635Z,988.32
2019-04-07T02:05:15.566Z,988.27
2019-04-07T02:06:15.547Z,988.28
2019-04-07T02:07:15.396Z,988.25
2019-04-07T02:08:15.470Z,988.28
2019-04-07T02:09:16.173Z,988.28
2019-04-07T02:10:16.189Z,988.3
2019-04-07T02:11:15.478Z,988.28
2019-04-07T02:12:15.761Z,988.28
2019-04-07T02:13:15.518Z,988.31
2019-04-07T02:14:15.909Z,988.28
2019-04-07T02:15:16.172Z,988.29
2019-04-07T02:16:15.672Z,988.31
2019-04-07T02:17:16.138Z,988.3
2019-04-07T02:18:16.331Z,988.26
2019-04-07T02:19:16.210Z,988.28
2019-04-07T02:20:15.682Z,988.27
2019-04-07T02:21:15.735Z,988.29
2019-04-07T02:22:15.871Z,988.3
2019-04-07T02:23:16.199Z,988.29
2019-04-07T02:24:15.828Z,988.27
2019-04-07T02:25:16.106Z,988.31
2019-04-07T02:26:16.352Z,988.31
2019-04-07T02:27:16.418Z,988.27
2019-04-07T02:28:16.378Z,988.28
2019-04-07T02:29:15.843Z,988.32
2019-04-07T02:30:16.157Z,988.33
2019-04-07T02:31:16.966Z,988.31
2019-04-07T02:32:15.906Z,988.33
2019-04-07T02:33:16.571Z,988.28
2019-04-07T02:34:15.949Z,988.32
2019-04-07T02:35:16.555Z,988.28
2019-04-07T02:36:23.666Z,988.29
2019-04-07T02:37:16.005Z,988.33
2019-04-07T02:38:17.606Z,988.34
2019-04-07T02:39:16.049Z,988.32
2019-04-07T02:40:16.074Z,988.33
2019-04-07T02:41:16.087Z,988.29
2019-04-07T02:42:16.768Z,988.29
2019-04-07T02:43:16.129Z,988.26
2019-04-07T02:44:16.148Z,988.3
2019-04-07T02:45:16.957Z,988.32
2019-04-07T02:46:16.918Z,988.33
2019-04-07T02:47:16.210Z,988.28
2019-04-07T02:48:16.228Z,988.33
2019-04-07T02:49:16.557Z,988.31
2019-04-07T02:50:16.272Z,988.32
2019-04-07T02:51:16.290Z,988.29
2019-04-07T02:52:16.633Z,988.31
2019-04-07T02:53:16.334Z,988.32
2019-04-07T02:54:16.354Z,988.29
2019-04-07T02:55:16.574Z,988.31
2019-04-07T02:56:16.511Z,988.3
2019-04-07T02:57:16.412Z,988.3
2019-04-07T02:58:16.432Z,988.29
2019-04-07T02:59:16.602Z,988.28
2019-04-07T03:00:16.474Z,988.35
2019-04-07T03:01:16.496Z,988.32
2019-04-07T03:02:16.515Z,988.3
2019-04-07T03:03:17.140Z,988.33
2019-04-07T03:04:16.555Z,988.32
2019-04-07T03:05:16.588Z,988.34
2019-04-07T03:06:32.308Z,988.35
2019-04-07T03:07:17.598Z,988.35
2019-04-07T03:08:17.269Z,988.36
2019-04-07T03:09:16.660Z,988.34
2019-04-07T03:10:17.033Z,988.32
2019-04-07T03:11:16.696Z,988.33
2019-04-07T03:12:16.714Z,988.32
2019-04-07T03:13:16.922Z,988.31
2019-04-07T03:14:17.599Z,988.33
2019-04-07T03:15:17.159Z,988.31
2019-04-07T03:16:17.283Z,988.32
2019-04-07T03:17:16.817Z,988.33
2019-04-07T03:18:16.837Z,988.35
2019-04-07T03:19:17.073Z,988.34
2019-04-07T03:20:16.942Z,988.34
2019-04-07T03:21:17.076Z,988.35
2019-04-07T03:22:16.917Z,988.36
2019-04-07T03:23:16.940Z,988.35
2019-04-07T03:24:17.077Z,988.33
2019-04-07T03:25:17.263Z,988.32
2019-04-07T03:26:16.997Z,988.34
2019-04-07T03:27:17.797Z,988.31
2019-04-07T03:28:17.039Z,988.33
2019-04-07T03:29:18.023Z,988.33
2019-04-07T03:30:17.732Z,988.34
2019-04-07T03:31:19.329Z,988.31
2019-04-07T03:32:19.732Z,988.33
2019-04-07T03:33:21.064Z,988.35
2019-04-07T03:34:18.374Z,988.34
2019-04-07T03:35:18.624Z,988.34
2019-04-07T03:36:20.404Z,988.31
2019-04-07T03:37:40.933Z,988.37
2019-04-07T03:38:33.714Z,988.36
2019-04-07T03:39:33.723Z,988.36
2019-04-07T03:40:33.741Z,988.28
2019-04-07T03:41:33.774Z,988.38
2019-04-07T03:42:34.252Z,988.37
2019-04-07T03:43:34.568Z,988.32
2019-04-07T03:44:34.371Z,988.32
2019-04-07T03:45:33.988Z,988.34
2019-04-07T03:46:34.633Z,988.34
2019-04-07T03:47:33.884Z,988.32
2019-04-07T03:48:35.187Z,988.36
2019-04-07T03:49:34.984Z,988.35
2019-04-07T03:50:34.647Z,988.36
2019-04-07T03:51:33.964Z,988.3
2019-04-07T03:52:34.104Z,988.3
2019-04-07T03:53:34.005Z,988.33
2019-04-07T03:54:34.028Z,988.31
2019-04-07T03:55:34.044Z,988.29
2019-04-07T03:56:34.305Z,988.3
2019-04-07T03:57:34.241Z,988.32
2019-04-07T03:58:34.347Z,988.33
2019-04-07T03:59:35.148Z,988.29
2019-04-07T04:00:34.146Z,988.35
2019-04-07T04:01:35.365Z,988.28
2019-04-07T04:02:34.483Z,988.3
2019-04-07T04:03:34.348Z,988.31
2019-04-07T04:04:34.343Z,988.27
2019-04-07T04:05:34.265Z,988.32
2019-04-07T04:06:35.176Z,988.27
2019-04-07T04:07:36.881Z,988.31
2019-04-07T04:08:34.972Z,988.33
2019-04-07T04:09:37.904Z,988.33
2019-04-07T04:10:34.441Z,988.35
2019-04-07T04:11:34.401Z,988.36
2019-04-07T04:12:35.561Z,988.4
2019-04-07T04:13:34.406Z,988.41
2019-04-07T04:14:34.698Z,988.44
2019-04-07T04:15:34.450Z,988.48
2019-04-07T04:16:34.466Z,988.46
2019-04-07T04:17:34.792Z,988.43
2019-04-07T04:18:35.197Z,988.46
2019-04-07T04:19:34.797Z,988.49
2019-04-07T04:20:34.827Z,988.48
2019-04-07T04:21:34.566Z,988.52
2019-04-07T04:22:34.586Z,988.49
2019-04-07T04:23:35.463Z,988.44
2019-04-07T04:24:35.017Z,988.48
2019-04-07T04:25:34.664Z,988.49
2019-04-07T04:26:35.678Z,988.53
2019-04-07T04:27:35.250Z,988.51
2019-04-07T04:28:34.847Z,988.54
2019-04-07T04:29:34.726Z,988.54
2019-04-07T04:30:34.752Z,988.5
2019-04-07T04:31:34.766Z,988.6
2019-04-07T04:32:34.787Z,988.55
2019-04-07T04:33:34.870Z,988.59
2019-04-07T04:34:34.826Z,988.61
2019-04-07T04:35:34.848Z,988.6
2019-04-07T04:36:34.865Z,988.66
2019-04-07T04:37:42.416Z,988.66
2019-04-07T04:38:34.911Z,988.65
2019-04-07T04:39:35.475Z,988.64
2019-04-07T04:40:34.948Z,988.67
2019-04-07T04:41:34.970Z,988.71
2019-04-07T04:42:35.767Z,988.66
2019-04-07T04:43:35.970Z,988.65
2019-04-07T04:44:35.708Z,988.63
2019-04-07T04:45:35.046Z,988.68
2019-04-07T04:46:35.069Z,988.65
2019-04-07T04:47:35.103Z,988.68
2019-04-07T04:48:35.215Z,988.7
2019-04-07T04:49:35.329Z,988.72
2019-04-07T04:50:35.425Z,988.69
2019-04-07T04:51:39.086Z,988.74
2019-04-07T04:52:36.156Z,988.72
2019-04-07T04:53:35.205Z,988.74
2019-04-07T04:54:35.435Z,988.7
2019-04-07T04:55:35.246Z,988.73
2019-04-07T04:56:35.931Z,988.75
2019-04-07T04:57:35.352Z,988.75
2019-04-07T04:58:36.018Z,988.75
2019-04-07T04:59:35.353Z,988.77
2019-04-07T05:00:36.196Z,988.76
2019-04-07T05:01:36.117Z,988.8
2019-04-07T05:02:35.405Z,988.75
2019-04-07T05:03:36.167Z,988.75
2019-04-07T05:04:35.579Z,988.81
2019-04-07T05:05:35.642Z,988.83
2019-04-07T05:06:35.748Z,988.83
2019-04-07T05:07:47.643Z,988.86
2019-04-07T05:08:35.879Z,988.87
2019-04-07T05:09:43.885Z,988.85
2019-04-07T05:10:35.837Z,988.89
2019-04-07T05:11:35.896Z,988.88
2019-04-07T05:12:35.585Z,988.9
2019-04-07T05:13:35.747Z,988.89
2019-04-07T05:14:35.640Z,988.92
2019-04-07T05:15:35.649Z,988.93
2019-04-07T05:16:35.712Z,988.93
2019-04-07T05:17:35.687Z,988.92
2019-04-07T05:18:35.968Z,988.9
2019-04-07T05:19:35.725Z,988.96
2019-04-07T05:20:35.746Z,988.92
2019-04-07T05:21:36.194Z,988.96
2019-04-07T05:22:35.936Z,988.97
2019-04-07T05:23:35.998Z,988.94
2019-04-07T05:24:36.651Z,988.99
2019-04-07T05:25:36.108Z,989.01
2019-04-07T05:26:36.475Z,989.01
2019-04-07T05:27:35.886Z,989.03
2019-04-07T05:28:36.956Z,989.02
2019-04-07T05:29:36.465Z,989.04
2019-04-07T05:30:36.529Z,989.03
2019-04-07T05:31:35.964Z,989.03
2019-04-07T05:32:36.703Z,989.1
2019-04-07T05:33:36.534Z,989.05
2019-04-07T05:34:36.660Z,989.07
2019-04-07T05:35:36.290Z,989.07
2019-04-07T05:36:36.894Z,989.06
2019-04-07T05:37:36.087Z,989.07
2019-04-07T05:38:36.677Z,989.11
2019-04-07T05:39:36.233Z,989.09
2019-04-07T05:40:36.678Z,989.16
2019-04-07T05:41:36.304Z,989.14
2019-04-07T05:42:36.187Z,989.15
2019-04-07T05:43:36.895Z,989.14
2019-04-07T05:44:36.394Z,989.17
2019-04-07T05:45:37.526Z,989.15
2019-04-07T05:46:40.019Z,989.17
2019-04-07T05:47:36.492Z,989.18
2019-04-07T05:48:37.054Z,989.19
2019-04-07T05:49:36.402Z,989.18
2019-04-07T05:50:36.345Z,989.22
2019-04-07T05:51:37.000Z,989.19
2019-04-07T05:52:39.477Z,989.23
2019-04-07T05:53:36.408Z,989.25
2019-04-07T05:54:37.717Z,989.25
2019-04-07T05:55:37.065Z,989.25
2019-04-07T05:56:37.005Z,989.22
2019-04-07T05:57:36.486Z,989.27
2019-04-07T05:58:38.543Z,989.29
2019-04-07T05:59:36.557Z,989.32
2019-04-07T06:00:37.144Z,989.31
2019-04-07T06:01:36.730Z,989.35
2019-04-07T06:02:37.421Z,989.35
2019-04-07T06:03:39.430Z,989.38
2019-04-07T06:04:36.628Z,989.33
2019-04-07T06:05:36.859Z,989.36
2019-04-07T06:06:37.730Z,989.37
2019-04-07T06:07:37.626Z,989.38
2019-04-07T06:08:39.123Z,989.42
2019-04-07T06:09:37.232Z,989.39
2019-04-07T06:10:37.029Z,989.37
2019-04-07T06:11:36.772Z,989.39
2019-04-07T06:12:38.714Z,989.39
2019-04-07T06:13:36.811Z,989.42
2019-04-07T06:14:36.883Z,989.43
2019-04-07T06:15:36.851Z,989.4
2019-04-07T06:16:36.872Z,989.39
2019-04-07T06:17:36.891Z,989.46
2019-04-07T06:18:36.941Z,989.39
2019-04-07T06:19:39.418Z,989.39
2019-04-07T06:20:37.006Z,989.42
2019-04-07T06:21:37.740Z,989.41
2019-04-07T06:22:37.054Z,989.41
2019-04-07T06:23:37.517Z,989.45
2019-04-07T06:24:37.037Z,989.42
2019-04-07T06:25:40.964Z,989.41
2019-04-07T06:26:37.131Z,989.44
2019-04-07T06:27:37.095Z,989.42
2019-04-07T06:28:37.117Z,989.42
2019-04-07T06:29:37.743Z,989.45
2019-04-07T06:30:37.874Z,989.46
2019-04-07T06:31:37.175Z,989.46
2019-04-07T06:32:38.421Z,989.45
2019-04-07T06:33:38.185Z,989.44
2019-04-07T06:34:39.701Z,989.46
2019-04-07T06:35:37.979Z,989.42
2019-04-07T06:36:37.463Z,989.48
2019-04-07T06:37:37.430Z,989.52
2019-04-07T06:38:41.439Z,989.48
2019-04-07T06:39:37.434Z,989.49
2019-04-07T06:40:37.359Z,989.48
2019-04-07T06:41:37.754Z,989.49
2019-04-07T06:42:37.551Z,989.54
2019-04-07T06:43:39.105Z,989.51
2019-04-07T06:44:37.711Z,989.54
2019-04-07T06:45:37.464Z,989.55
2019-04-07T06:46:37.931Z,989.58
2019-04-07T06:47:37.504Z,989.57
2019-04-07T06:48:38.834Z,989.59
2019-04-07T06:49:38.080Z,989.6
2019-04-07T06:50:45.972Z,989.58
2019-04-07T06:51:37.584Z,989.6
2019-04-07T06:52:40.648Z,989.62
2019-04-07T06:53:38.157Z,989.63
2019-04-07T06:54:37.762Z,989.64
2019-04-07T06:55:37.712Z,989.59
2019-04-07T06:56:37.892Z,989.66
2019-04-07T06:57:38.366Z,989.66
2019-04-07T06:58:40.608Z,989.69
2019-04-07T06:59:38.448Z,989.67
2019-04-07T07:00:37.775Z,989.74
2019-04-07T07:01:38.525Z,989.71
2019-04-07T07:02:38.016Z,989.73
2019-04-07T07:03:38.980Z,989.76
2019-04-07T07:04:41.514Z,989.78
2019-04-07T07:05:37.873Z,989.8
2019-04-07T07:06:38.533Z,989.78
2019-04-07T07:07:37.988Z,989.81
2019-04-07T07:08:44.901Z,989.82
2019-04-07T07:09:38.902Z,989.81
2019-04-07T07:10:39.269Z,989.81
2019-04-07T07:11:41.390Z,989.77
2019-04-07T07:12:39.794Z,989.81
2019-04-07T07:13:41.257Z,989.79
2019-04-07T07:14:42.547Z,989.84
2019-04-07T07:15:38.568Z,989.87
2019-04-07T07:16:41.065Z,989.8
2019-04-07T07:17:38.120Z,989.86
2019-04-07T07:18:38.187Z,989.82
2019-04-07T07:19:38.166Z,989.86
2019-04-07T07:20:38.223Z,989.87
2019-04-07T07:21:39.533Z,989.91
2019-04-07T07:22:40.183Z,989.9
2019-04-07T07:23:38.578Z,989.91
2019-04-07T07:24:38.266Z,989.94
2019-04-07T07:25:38.307Z,989.95
2019-04-07T07:26:38.563Z,989.93
2019-04-07T07:27:39.667Z,989.91
2019-04-07T07:28:39.020Z,989.93
2019-04-07T07:29:38.696Z,989.92
2019-04-07T07:30:38.393Z,989.91
2019-04-07T07:31:39.097Z,989.91
2019-04-07T07:32:38.907Z,989.92
2019-04-07T07:33:40.839Z,989.93
2019-04-07T07:34:41.253Z,989.96
2019-04-07T07:35:38.844Z,989.95
2019-04-07T07:36:38.518Z,989.98
2019-04-07T07:37:38.762Z,989.96
2019-04-07T07:38:38.579Z,989.97
2019-04-07T07:39:41.822Z,989.97
2019-04-07T07:40:38.662Z,989.99
2019-04-07T07:41:38.865Z,989.96
2019-04-07T07:42:38.645Z,989.95
2019-04-07T07:43:39.054Z,989.95
2019-04-07T07:44:39.709Z,989.97
2019-04-07T07:45:42.809Z,989.99
2019-04-07T07:46:38.789Z,989.98
2019-04-07T07:47:38.778Z,989.95
2019-04-07T07:48:38.944Z,989.99
2019-04-07T07:49:40.246Z,990
2019-04-07T07:50:40.334Z,990.01
2019-04-07T07:51:39.770Z,990.03
2019-04-07T07:52:38.861Z,989.99
2019-04-07T07:53:39.389Z,989.96
2019-04-07T07:54:38.897Z,989.98
2019-04-07T07:55:38.921Z,989.98
2019-04-07T07:56:41.594Z,989.96
2019-04-07T07:57:38.984Z,989.98
2019-04-07T07:58:39.563Z,990.01
2019-04-07T07:59:39.588Z,990.01
2019-04-07T08:00:41.326Z,990.04
2019-04-07T08:01:39.800Z,989.97
2019-04-07T08:02:39.068Z,989.98
2019-04-07T08:03:39.316Z,990.04
2019-04-07T08:04:39.884Z,990.07
2019-04-07T08:05:39.130Z,990.05
2019-04-07T08:06:40.928Z,990.07
2019-04-07T08:07:43.593Z,990.04
2019-04-07T08:08:39.627Z,990.06
2019-04-07T08:09:39.324Z,990.05
2019-04-07T08:10:39.675Z,990.07
2019-04-07T08:11:39.920Z,990.03
2019-04-07T08:12:39.983Z,990.02
2019-04-07T08:13:43.275Z,990.04
2019-04-07T08:14:39.320Z,990.03
2019-04-07T08:15:39.353Z,990.01
2019-04-07T08:16:39.985Z,990.02
2019-04-07T08:17:39.387Z,990.06
2019-04-07T08:18:42.615Z,990.08
2019-04-07T08:19:42.006Z,990.08
2019-04-07T08:20:40.842Z,990.1
2019-04-07T08:21:40.326Z,990.06
2019-04-07T08:22:42.989Z,990.1
2019-04-07T08:23:42.994Z,990.09
2019-04-07T08:24:39.532Z,990.1
2019-04-07T08:25:40.060Z,990.12
2019-04-07T08:26:39.810Z,990.11
2019-04-07T08:27:39.775Z,990.12
2019-04-07T08:28:40.270Z,990.12
2019-04-07T08:29:39.844Z,990.12
2019-04-07T08:30:43.312Z,990.11
2019-04-07T08:31:39.886Z,990.15
2019-04-07T08:32:39.885Z,990.14
2019-04-07T08:33:39.721Z,990.12
2019-04-07T08:34:40.389Z,990.08
2019-04-07T08:35:40.549Z,990.13
2019-04-07T08:36:41.901Z,990.11
2019-04-07T08:37:40.426Z,990.11
2019-04-07T08:38:40.051Z,990.08
2019-04-07T08:39:39.848Z,990.09
2019-04-07T08:40:40.502Z,990.14
2019-04-07T08:41:41.572Z,990.09
2019-04-07T08:42:39.911Z,990.08
2019-04-07T08:43:39.934Z,990.09
2019-04-07T08:44:40.763Z,990.09
2019-04-07T08:45:39.978Z,990.09
2019-04-07T08:46:41.925Z,990.09
2019-04-07T08:47:40.219Z,990.06
2019-04-07T08:48:40.200Z,990.08
2019-04-07T08:49:40.395Z,990.09
2019-04-07T08:50:40.942Z,990.1
2019-04-07T08:51:40.415Z,990.1
2019-04-07T08:52:42.462Z,990.08
2019-04-07T08:53:43.491Z,990.09
2019-04-07T08:54:40.164Z,990.09
2019-04-07T08:55:40.520Z,990.08
2019-04-07T08:56:40.255Z,990.12
2019-04-07T08:57:40.229Z,990.08
2019-04-07T08:58:40.248Z,990.08
2019-04-07T08:59:41.812Z,990.12
2019-04-07T09:00:40.292Z,990.08
2019-04-07T09:01:40.485Z,990.09
2019-04-07T09:02:40.333Z,990.07
2019-04-07T09:03:43.838Z,990.09
2019-04-07T09:04:41.218Z,990.09
2019-04-07T09:05:41.027Z,990.02
2019-04-07T09:06:40.836Z,990.04
2019-04-07T09:07:41.108Z,990.04
2019-04-07T09:08:40.946Z,990.07
2019-04-07T09:09:46.494Z,990.07
2019-04-07T09:10:40.543Z,990.1
2019-04-07T09:11:41.530Z,990.06
2019-04-07T09:12:40.741Z,990.04
2019-04-07T09:13:41.298Z,990.05
2019-04-07T09:14:41.075Z,990.08
2019-04-07T09:15:42.964Z,990.09
2019-04-07T09:16:41.511Z,990.04
2019-04-07T09:17:45.715Z,990.06
2019-04-07T09:18:51.605Z,990.02
2019-04-07T09:19:40.696Z,990.09
2019-04-07T09:20:42.825Z,990.09
2019-04-07T09:21:42.488Z,990.09
2019-04-07T09:22:40.773Z,990.07
2019-04-07T09:23:40.778Z,990.11
2019-04-07T09:24:41.564Z,990.1
2019-04-07T09:25:41.984Z,990.15
2019-04-07T09:26:42.800Z,990.07
2019-04-07T09:27:41.064Z,990.12
2019-04-07T09:28:40.885Z,990.14
2019-04-07T09:29:41.058Z,990.14
2019-04-07T09:30:40.977Z,990.15
2019-04-07T09:31:41.050Z,990.13
2019-04-07T09:32:41.590Z,990.11
2019-04-07T09:33:40.991Z,990.14
2019-04-07T09:34:41.409Z,990.15
2019-04-07T09:35:41.294Z,990.15
2019-04-07T09:36:41.808Z,990.15
2019-04-07T09:37:41.658Z,990.16
2019-04-07T09:38:41.098Z,990.18
2019-04-07T09:39:54.502Z,990.15
2019-04-07T09:40:42.196Z,990.14
2019-04-07T09:41:42.690Z,990.16
2019-04-07T09:42:41.228Z,990.13
2019-04-07T09:43:41.203Z,990.14
2019-04-07T09:44:41.911Z,990.19
2019-04-07T09:45:41.266Z,990.14
2019-04-07T09:46:43.711Z,990.18
2019-04-07T09:47:41.408Z,990.14
2019-04-07T09:48:41.475Z,990.16
2019-04-07T09:49:42.176Z,990.11
2019-04-07T09:50:41.938Z,990.14
2019-04-07T09:51:41.655Z,990.12
2019-04-07T09:52:43.500Z,990.12
2019-04-07T09:53:41.517Z,990.13
2019-04-07T09:54:41.442Z,990.12
2019-04-07T09:55:42.132Z,990.16
2019-04-07T09:56:41.789Z,990.13
2019-04-07T09:57:41.917Z,990.16
2019-04-07T09:58:43.526Z,990.12
2019-04-07T09:59:41.546Z,990.09
2019-04-07T10:00:41.569Z,990.15
2019-04-07T10:01:44.148Z,990.09
2019-04-07T10:02:41.611Z,990.11
2019-04-07T10:03:41.632Z,990.15
2019-04-07T10:04:42.510Z,990.07
2019-04-07T10:05:41.676Z,990.12
2019-04-07T10:06:41.697Z,990.12
2019-04-07T10:07:42.840Z,990.14
2019-04-07T10:08:41.875Z,990.13
2019-04-07T10:09:41.762Z,990.11
2019-04-07T10:10:41.785Z,990.1
2019-04-07T10:11:41.834Z,990.09
2019-04-07T10:12:42.533Z,990.08
2019-04-07T10:13:41.857Z,990.12
2019-04-07T10:14:42.068Z,990.1
2019-04-07T10:15:42.084Z,990.06
2019-04-07T10:16:42.064Z,990.05
2019-04-07T10:17:41.937Z,990.06
2019-04-07T10:18:42.794Z,990.06
2019-04-07T10:19:42.620Z,990.07
2019-04-07T10:20:42.204Z,990.03
2019-04-07T10:21:42.807Z,990.06
2019-04-07T10:22:42.875Z,990.1
2019-04-07T10:23:42.079Z,990.07
2019-04-07T10:24:42.096Z,990.08
2019-04-07T10:25:42.329Z,990.04
2019-04-07T10:26:42.949Z,990.09
2019-04-07T10:27:42.894Z,990.06
2019-04-07T10:28:43.025Z,990.01
2019-04-07T10:29:42.791Z,990.07
2019-04-07T10:30:42.260Z,990.08
2019-04-07T10:31:42.349Z,990.07
2019-04-07T10:32:42.839Z,990.08
2019-04-07T10:33:42.716Z,990.06
2019-04-07T10:34:42.833Z,990.08
2019-04-07T10:35:42.348Z,990.12
2019-04-07T10:36:42.531Z,990.09
2019-04-07T10:37:42.852Z,990.07
2019-04-07T10:38:42.610Z,990.08
2019-04-07T10:39:43.216Z,990.11
2019-04-07T10:40:43.718Z,990.11
2019-04-07T10:41:42.702Z,990.05
2019-04-07T10:42:42.512Z,990.05
2019-04-07T10:43:42.577Z,990.04
2019-04-07T10:44:43.382Z,990.04
2019-04-07T10:45:42.581Z,990.03
2019-04-07T10:46:42.733Z,990.05
2019-04-07T10:47:42.629Z,990.01
2019-04-07T10:48:43.345Z,990.02
2019-04-07T10:49:43.193Z,990
2019-04-07T10:50:42.753Z,990
2019-04-07T10:51:42.723Z,989.98
2019-04-07T10:52:42.745Z,990.01
2019-04-07T10:53:42.769Z,989.97
2019-04-07T10:54:43.719Z,990.01
2019-04-07T10:55:43.081Z,989.96
2019-04-07T10:56:42.895Z,990
2019-04-07T10:57:43.588Z,990
2019-04-07T10:58:43.594Z,989.98
2019-04-07T10:59:42.911Z,989.99
2019-04-07T11:00:45.653Z,990.02
2019-04-07T11:01:43.355Z,989.96
2019-04-07T11:02:44.174Z,989.96
2019-04-07T11:03:43.095Z,990
2019-04-07T11:04:43.027Z,989.97
2019-04-07T11:05:43.051Z,990.03
2019-04-07T11:06:43.844Z,989.99
2019-04-07T11:07:43.819Z,989.96
2019-04-07T11:08:43.120Z,989.95
2019-04-07T11:09:43.847Z,989.95
2019-04-07T11:10:43.167Z,989.87
2019-04-07T11:11:43.805Z,989.92
2019-04-07T11:12:43.229Z,989.92
2019-04-07T11:13:43.240Z,989.94
2019-04-07T11:14:43.262Z,989.93
2019-04-07T11:15:43.285Z,989.97
2019-04-07T11:16:43.307Z,989.93
2019-04-07T11:17:43.647Z,989.96
2019-04-07T11:18:43.912Z,989.94
2019-04-07T11:19:43.546Z,989.97
2019-04-07T11:20:43.424Z,989.9
2019-04-07T11:21:43.428Z,989.91
2019-04-07T11:22:44.163Z,989.89
2019-04-07T11:23:43.535Z,989.9
2019-04-07T11:24:43.498Z,989.9
2019-04-07T11:25:43.913Z,989.91
2019-04-07T11:26:43.542Z,989.91
2019-04-07T11:27:43.980Z,989.91
2019-04-07T11:28:44.489Z,989.89
2019-04-07T11:29:43.703Z,989.92
2019-04-07T11:30:43.788Z,989.98
2019-04-07T11:31:43.951Z,989.97
2019-04-07T11:32:44.330Z,989.91
2019-04-07T11:33:43.868Z,989.93
2019-04-07T11:34:43.734Z,989.93
2019-04-07T11:35:44.371Z,989.91
2019-04-07T11:36:44.261Z,989.92
2019-04-07T11:37:44.098Z,989.9
2019-04-07T11:38:44.062Z,989.92
2019-04-07T11:39:44.578Z,989.97
2019-04-07T11:40:48.854Z,989.93
2019-04-07T11:41:43.899Z,989.93
2019-04-07T11:42:44.761Z,989.89
2019-04-07T11:43:44.434Z,989.92
2019-04-07T11:44:43.973Z,989.92
2019-04-07T11:45:54.610Z,989.93
2019-04-07T11:46:44.225Z,989.91
2019-04-07T11:47:44.179Z,989.87
2019-04-07T11:48:44.938Z,989.86
2019-04-07T11:49:44.951Z,989.84
2019-04-07T11:50:44.115Z,989.89
2019-04-07T11:51:44.347Z,989.91
2019-04-07T11:52:44.162Z,989.84
2019-04-07T11:53:44.281Z,989.9
2019-04-07T11:54:44.209Z,989.87
2019-04-07T11:55:44.309Z,989.84
2019-04-07T11:56:44.257Z,989.91
2019-04-07T11:57:45.234Z,989.87
2019-04-07T11:58:45.130Z,989.93
2019-04-07T11:59:44.737Z,989.94
2019-04-07T12:00:45.168Z,989.89
2019-04-07T12:01:46.254Z,989.85
2019-04-07T12:02:45.437Z,989.92
2019-04-07T12:03:45.250Z,989.9
2019-04-07T12:04:44.477Z,989.91
2019-04-07T12:05:44.476Z,989.94
2019-04-07T12:06:48.032Z,989.91
2019-04-07T12:07:44.626Z,989.92
2019-04-07T12:08:44.638Z,989.9
2019-04-07T12:09:44.569Z,989.95
2019-04-07T12:10:54.535Z,989.91
2019-04-07T12:11:45.046Z,989.91
2019-04-07T12:12:44.644Z,989.93
2019-04-07T12:13:44.952Z,989.91
2019-04-07T12:14:45.422Z,989.87
2019-04-07T12:15:45.168Z,989.89
2019-04-07T12:16:44.837Z,989.91
2019-04-07T12:17:44.939Z,989.85
2019-04-07T12:18:45.917Z,989.89
2019-04-07T12:19:44.810Z,989.9
2019-04-07T12:20:45.077Z,989.89
2019-04-07T12:21:45.068Z,989.88
2019-04-07T12:22:47.018Z,989.9
2019-04-07T12:23:44.908Z,989.86
2019-04-07T12:24:45.535Z,989.87
2019-04-07T12:25:44.955Z,989.93
2019-04-07T12:26:45.226Z,989.89
2019-04-07T12:27:46.155Z,989.86
2019-04-07T12:28:47.511Z,989.89
2019-04-07T12:29:45.936Z,989.88
2019-04-07T12:30:45.162Z,989.85
2019-04-07T12:31:45.096Z,989.87